sensor_id;sensor_type;location;lat;lon;timestamp;P1;durP1;ratioP1;P2;durP2;ratioP2
37199;SDS011;23096;50.892;16.746;2023-05-07T21:05:20;5.70;;;4.70;;
37199;SDS011;23096;50.892;16.746;2023-05-07T21:07:46;6.10;;;5.20;;
37199;SDS011;23096;50.892;16.746;2023-05-07T21:10:11;6.50;;;4.50;;
37199;SDS011;23096;50.892;16.746;2023-05-07T21:12:37;7.70;;;4.50;;
37199;SDS011;23096;50.892;16.746;2023-05-07T21:15:04;6.10;;;4.90;;
37199;SDS011;23096;50.892;16.746;2023-05-07T21:17:29;8.50;;;5.30;;
37199;SDS011;23096;50.892;16.746;2023-05-07T21:19:57;8.40;;;5.10;;
37199;SDS011;23096;50.892;16.746;2023-05-07T21:22:23;4.60;;;4.20;;
37199;SDS011;23096;50.892;16.746;2023-05-07T21:24:48;6.40;;;4.90;;
37199;SDS011;23096;50.892;16.746;2023-05-07T21:27:14;7.60;;;4.60;;
37199;SDS011;23096;50.892;16.746;2023-05-07T21:29:39;7.20;;;4.50;;
37199;SDS011;23096;50.892;16.746;2023-05-07T21:32:05;7.00;;;4.70;;
37199;SDS011;23096;50.892;16.746;2023-05-07T21:34:30;6.60;;;5.00;;
37199;SDS011;23096;50.892;16.746;2023-05-07T21:36:57;5.80;;;4.50;;
37199;SDS011;23096;50.892;16.746;2023-05-07T21:39:23;6.30;;;4.80;;
37199;SDS011;23096;50.892;16.746;2023-05-07T21:41:48;6.30;;;4.20;;
37199;SDS011;23096;50.892;16.746;2023-05-07T21:44:14;7.20;;;4.70;;
37199;SDS011;23096;50.892;16.746;2023-05-07T21:46:39;7.70;;;4.90;;
37199;SDS011;23096;50.892;16.746;2023-05-07T21:49:05;7.70;;;4.80;;
37199;SDS011;23096;50.892;16.746;2023-05-07T21:51:31;7.10;;;5.90;;
37199;SDS011;23096;50.892;16.746;2023-05-07T21:53:58;6.00;;;4.70;;
37199;SDS011;23096;50.892;16.746;2023-05-07T21:56:24;7.50;;;5.80;;
37199;SDS011;23096;50.892;16.746;2023-05-07T21:58:49;6.00;;;4.80;;
37199;SDS011;23096;50.892;16.746;2023-05-07T22:01:15;4.90;;;4.40;;
37199;SDS011;23096;50.892;16.746;2023-05-07T22:03:40;6.20;;;4.60;;
37199;SDS011;23096;50.892;16.746;2023-05-07T22:06:06;6.00;;;4.80;;
37199;SDS011;23096;50.892;16.746;2023-05-07T22:08:32;8.10;;;4.80;;
37199;SDS011;23096;50.892;16.746;2023-05-07T22:10:58;6.00;;;4.80;;
37199;SDS011;23096;50.892;16.746;2023-05-07T22:13:23;7.20;;;5.40;;
37199;SDS011;23096;50.892;16.746;2023-05-07T22:15:49;6.00;;;4.80;;
37199;SDS011;23096;50.892;16.746;2023-05-07T22:18:15;7.60;;;4.90;;
37199;SDS011;23096;50.892;16.746;2023-05-07T22:20:40;6.70;;;5.50;;
37199;SDS011;23096;50.892;16.746;2023-05-07T22:23:06;9.50;;;6.10;;
37199;SDS011;23096;50.892;16.746;2023-05-07T22:25:32;8.40;;;5.90;;
37199;SDS011;23096;50.892;16.746;2023-05-07T22:28:00;8.30;;;5.80;;
37199;SDS011;23096;50.892;16.746;2023-05-07T22:30:26;7.40;;;6.30;;
37199;SDS011;23096;50.892;16.746;2023-05-07T22:32:52;5.90;;;5.30;;
37199;SDS011;23096;50.892;16.746;2023-05-07T22:35:17;6.70;;;5.30;;
37199;SDS011;23096;50.892;16.746;2023-05-07T22:37:43;9.90;;;6.60;;
37199;SDS011;23096;50.892;16.746;2023-05-07T22:46:41;9.30;;;6.20;;
37199;SDS011;23096;50.892;16.746;2023-05-07T22:49:07;8.10;;;5.90;;
37199;SDS011;23096;50.892;16.746;2023-05-07T22:51:32;7.50;;;5.90;;
37199;SDS011;23096;50.892;16.746;2023-05-07T22:53:58;8.00;;;6.10;;
37199;SDS011;23096;50.892;16.746;2023-05-07T22:56:24;7.00;;;5.40;;
37199;SDS011;23096;50.892;16.746;2023-05-07T22:58:49;7.10;;;6.20;;
37199;SDS011;23096;50.892;16.746;2023-05-07T23:01:15;8.20;;;6.40;;
37199;SDS011;23096;50.892;16.746;2023-05-07T23:03:42;11.30;;;6.80;;
37199;SDS011;23096;50.892;16.746;2023-05-07T23:06:08;12.20;;;7.00;;
37199;SDS011;23096;50.892;16.746;2023-05-07T23:08:34;9.00;;;6.60;;
37199;SDS011;23096;50.892;16.746;2023-05-07T23:11:00;7.50;;;5.90;;
37199;SDS011;23096;50.892;16.746;2023-05-07T23:13:25;9.00;;;6.30;;
37199;SDS011;23096;50.892;16.746;2023-05-07T23:15:51;8.00;;;7.10;;
37199;SDS011;23096;50.892;16.746;2023-05-07T23:18:17;8.70;;;6.50;;
37199;SDS011;23096;50.892;16.746;2023-05-07T23:20:43;10.60;;;6.70;;
37199;SDS011;23096;50.892;16.746;2023-05-07T23:23:08;9.30;;;6.40;;
37199;SDS011;23096;50.892;16.746;2023-05-07T23:25:34;7.90;;;6.40;;
37199;SDS011;23096;50.892;16.746;2023-05-07T23:28:00;9.50;;;6.40;;
37199;SDS011;23096;50.892;16.746;2023-05-07T23:30:26;8.50;;;6.30;;
37199;SDS011;23096;50.892;16.746;2023-05-07T23:32:52;8.80;;;6.80;;
37199;SDS011;23096;50.892;16.746;2023-05-07T23:35:17;7.10;;;5.70;;
37199;SDS011;23096;50.892;16.746;2023-05-07T23:37:43;8.60;;;5.70;;
37199;SDS011;23096;50.892;16.746;2023-05-07T23:40:09;12.90;;;6.90;;
37199;SDS011;23096;50.892;16.746;2023-05-07T23:42:34;8.20;;;6.40;;
37199;SDS011;23096;50.892;16.746;2023-05-07T23:45:00;7.90;;;6.00;;
37199;SDS011;23096;50.892;16.746;2023-05-07T23:47:25;8.10;;;6.30;;
37199;SDS011;23096;50.892;16.746;2023-05-07T23:49:51;8.20;;;5.80;;
37199;SDS011;23096;50.892;16.746;2023-05-07T23:52:16;6.60;;;5.10;;
37199;SDS011;23096;50.892;16.746;2023-05-07T23:54:42;8.10;;;5.70;;
37199;SDS011;23096;50.892;16.746;2023-05-07T23:57:08;8.50;;;5.70;;
37199;SDS011;23096;50.892;16.746;2023-05-07T23:59:33;8.30;;;6.10;;
